14 | 08 | 2018

Daten Vortag

Wetterdaten von 10m Höhe gemessen, Station 2

Datum / Zeit Intervall min Luftfeuchte % Temperatur °C absolut Luftdruck hPa Wind m/s Windbö m/s Richtung Relative Luftdruck hPa Taupunkt °C Windchill °C Niederschlag mm
13-08-2018 00:25 5 77 18.2 1009.0 0.0 0.0 SE 1011.9 14.1 18.2 0.0
13-08-2018 00:30 5 78 18.2 1009.0 0.0 0.0 SE 1011.9 14.3 18.2 0.0
13-08-2018 00:35 5 78 18.1 1009.0 0.0 0.0 SE 1011.9 14.2 18.1 0.0
13-08-2018 00:40 5 79 18.0 1009.0 0.0 0.0 SE 1011.9 14.3 18.0 0.0
13-08-2018 00:45 5 80 17.8 1008.8 0.0 0.0 SE 1011.7 14.3 17.8 0.0
13-08-2018 00:50 5 81 17.8 1008.8 1.1 2.5 SE 1011.7 14.5 17.8 0.0
13-08-2018 00:55 5 81 17.7 1008.7 0.0 0.0 SE 1011.6 14.4 17.7 0.0
13-08-2018 01:00 5 81 17.7 1008.6 0.0 0.0 E 1011.5 14.4 17.7 0.0
13-08-2018 01:05 5 82 17.6 1008.7 0.0 0.0 E 1011.6 14.5 17.6 0.0
13-08-2018 01:10 5 82 17.6 1008.6 0.0 0.0 E 1011.5 14.5 17.6 0.0
13-08-2018 01:15 5 82 17.6 1008.4 0.0 0.0 E 1011.3 14.5 17.6 0.0
13-08-2018 01:20 5 82 17.5 1008.3 0.0 0.0 E 1011.2 14.4 17.5 0.0
13-08-2018 01:25 5 82 17.6 1008.3 0.0 0.0 E 1011.2 14.5 17.6 0.0
13-08-2018 01:30 5 82 17.6 1008.3 0.0 0.0 E 1011.2 14.5 17.6 0.0
13-08-2018 01:35 5 83 17.5 1008.3 0.0 0.0 E 1011.2 14.6 17.5 0.0
13-08-2018 01:40 5 83 17.4 1008.4 0.0 0.0 E 1011.3 14.5 17.4 0.0
13-08-2018 01:45 5 83 17.3 1008.2 0.0 0.0 E 1011.1 14.4 17.3 0.0
13-08-2018 01:50 5 84 17.3 1008.2 0.0 0.0 E 1011.1 14.6 17.3 0.0
13-08-2018 01:55 5 84 17.3 1008.0 0.0 0.0 E 1010.9 14.6 17.3 0.0
13-08-2018 02:00 5 83 17.4 1008.0 0.0 0.0 E 1010.9 14.5 17.4 0.0
13-08-2018 02:05 5 83 17.4 1007.9 0.0 0.0 SE 1010.8 14.5 17.4 0.0
13-08-2018 02:10 5 83 17.4 1007.8 1.1 3.6 SE 1010.7 14.5 17.4 0.0
13-08-2018 02:15 5 82 17.5 1007.8 0.0 0.0 SE 1010.7 14.4 17.5 0.0
13-08-2018 02:20 5 83 17.5 1007.8 0.0 2.5 SE 1010.7 14.6 17.5 0.0
13-08-2018 02:25 5 83 17.4 1007.8 0.0 2.5 SE 1010.7 14.5 17.4 0.0
13-08-2018 02:30 5 83 17.4 1007.8 0.0 0.0 SE 1010.7 14.5 17.4 0.0
13-08-2018 02:35 5 83 17.3 1007.8 2.5 5.0 SE 1010.7 14.4 17.3 0.0
13-08-2018 02:40 5 83 17.3 1007.5 2.5 5.0 S 1010.4 14.4 17.3 0.0
13-08-2018 02:45 5 83 17.4 1007.7 3.6 6.1 SE 1010.6 14.5 17.4 0.0
13-08-2018 02:50 5 83 17.4 1007.6 1.1 2.5 SE 1010.5 14.5 17.4 0.0
13-08-2018 02:55 5 83 17.4 1007.5 1.1 2.5 S 1010.4 14.5 17.4 0.0
13-08-2018 03:00 5 83 17.3 1007.6 2.5 3.6 SW 1010.5 14.4 17.3 0.0
13-08-2018 03:05 5 83 17.3 1007.4 0.0 1.1 S 1010.3 14.4 17.3 0.0
13-08-2018 03:10 5 84 17.3 1007.4 2.5 6.1 SSE 1010.3 14.6 17.3 0.0
13-08-2018 03:15 5 84 17.3 1007.4 2.5 5.0 SE 1010.3 14.6 17.3 0.0
13-08-2018 03:20 5 84 17.2 1007.3 2.5 3.6 SE 1010.2 14.5 17.2 0.0
13-08-2018 03:25 5 84 17.2 1007.3 2.5 3.6 SE 1010.2 14.5 17.2 0.0
13-08-2018 03:30 5 83 17.3 1007.2 0.0 3.6 E 1010.1 14.4 17.3 0.0
13-08-2018 03:35 5 83 17.3 1007.1 3.6 5.0 E 1010.0 14.4 17.3 0.0
13-08-2018 03:40 5 83 17.3 1007.2 0.0 2.5 E 1010.1 14.4 17.3 0.0
13-08-2018 03:45 5 83 17.3 1007.2 2.5 3.6 E 1010.1 14.4 17.3 0.0
13-08-2018 03:50 5 83 17.3 1007.0 0.0 0.0 NE 1009.9 14.4 17.3 0.0
13-08-2018 03:55 5 83 17.3 1007.0 0.0 0.0 E 1009.9 14.4 17.3 0.0
13-08-2018 04:00 5 83 17.3 1006.8 1.1 3.6 SE 1009.7 14.4 17.3 0.0
13-08-2018 04:05 5 83 17.3 1006.9 0.0 2.5 SE 1009.8 14.4 17.3 0.0
13-08-2018 04:10 5 83 17.2 1006.9 0.0 0.0 SE 1009.8 14.3 17.2 0.0
13-08-2018 04:15 5 83 17.2 1006.9 0.0 0.0 SE 1009.8 14.3 17.2 0.0
13-08-2018 04:20 5 83 17.2 1006.8 3.6 5.0 SE 1009.7 14.3 17.2 0.0
13-08-2018 04:25 5 83 17.2 1006.6 2.5 5.0 SE 1009.5 14.3 17.2 0.0
13-08-2018 04:30 5 83 17.2 1006.6 2.5 3.6 SE 1009.5 14.3 17.2 0.0
13-08-2018 04:35 5 83 17.1 1006.5 2.5 3.6 SE 1009.4 14.2 17.1 0.0
13-08-2018 04:40 5 83 17.1 1006.7 2.5 3.6 SE 1009.6 14.2 17.1 0.0
13-08-2018 04:45 5 84 17.1 1006.5 1.1 2.5 SE 1009.4 14.4 17.1 0.0
13-08-2018 04:50 5 84 17.1 1006.7 0.0 0.0 SE 1009.6 14.4 17.1 0.0
13-08-2018 04:55 5 85 16.9 1006.8 0.0 2.5 SE 1009.7 14.4 16.9 0.0
13-08-2018 05:00 5 85 16.7 1006.7 0.0 0.0 SE 1009.6 14.2 16.7 0.0
13-08-2018 05:05 5 85 16.7 1006.6 1.1 2.5 NE 1009.5 14.2 16.7 0.0
13-08-2018 05:10 5 86 16.7 1006.7 1.1 2.5 NE 1009.6 14.4 16.7 0.0
13-08-2018 05:15 5 86 16.7 1006.5 1.1 2.5 NE 1009.4 14.4 16.7 0.0
13-08-2018 05:20 5 86 16.5 1006.4 1.1 2.5 NE 1009.3 14.2 16.5 0.0
13-08-2018 05:25 5 87 16.5 1006.3 1.1 2.5 NE 1009.2 14.3 16.5 0.0
13-08-2018 05:30 5 87 16.4 1006.3 0.0 2.5 NE 1009.2 14.3 16.4 0.0
13-08-2018 05:35 5 87 16.3 1006.3 1.1 2.5 NE 1009.2 14.2 16.3 0.0
13-08-2018 05:40 5 87 16.3 1006.2 1.1 2.5 NE 1009.1 14.2 16.3 0.0
13-08-2018 05:45 5 87 16.2 1006.2 2.5 3.6 NE 1009.1 14.1 16.2 0.0
13-08-2018 05:50 5 88 16.1 1006.1 0.0 0.0 E 1009.0 14.1 16.1 0.0
13-08-2018 05:55 5 88 16.1 1005.9 1.1 5.0 E 1008.8 14.1 16.1 0.0
13-08-2018 06:00 5 88 16.1 1006.1 2.5 3.6 SE 1009.0 14.1 16.1 0.0
13-08-2018 06:05 5 88 16.2 1006.0 1.1 2.5 SE 1008.9 14.2 16.2 0.0
13-08-2018 06:10 5 88 16.2 1006.0 1.1 2.5 SE 1008.9 14.2 16.2 0.0
13-08-2018 06:15 5 88 16.3 1006.0 0.0 2.5 SE 1008.9 14.3 16.3 0.0
13-08-2018 06:20 5 88 16.3 1005.9 0.0 0.0 SE 1008.8 14.3 16.3 0.0
13-08-2018 06:25 5 88 16.2 1005.8 0.0 2.5 SE 1008.7 14.2 16.2 0.0
13-08-2018 06:30 5 89 16.2 1005.9 2.5 5.0 SE 1008.8 14.4 16.2 0.0
13-08-2018 06:35 5 89 16.3 1005.8 0.0 1.1 SE 1008.7 14.5 16.3 0.0
13-08-2018 06:40 5 89 16.3 1005.7 2.5 3.6 NWW 1008.6 14.5 16.3 0.0
13-08-2018 06:45 5 89 16.3 1005.7 1.1 2.5 NE 1008.6 14.5 16.3 0.0
13-08-2018 06:50 5 89 16.2 1005.8 0.0 0.0 NE 1008.7 14.4 16.2 0.0
13-08-2018 06:55 5 90 16.3 1005.7 0.0 0.0 NE 1008.6 14.7 16.3 0.0
13-08-2018 07:00 5 89 16.3 1005.7 0.0 0.0 NW 1008.6 14.5 16.3 0.0
13-08-2018 07:05 5 90 16.3 1005.6 0.0 0.0 NW 1008.5 14.7 16.3 0.0
13-08-2018 07:10 5 90 16.3 1005.5 0.0 0.0 NW 1008.4 14.7 16.3 0.0
13-08-2018 07:15 5 91 16.5 1005.7 0.0 0.0 NW 1008.6 15.0 16.5 0.0
13-08-2018 07:20 5 90 16.6 1005.7 0.0 0.0 NW 1008.6 15.0 16.6 0.0
13-08-2018 07:25 5 90 16.9 1005.7 0.0 0.0 NW 1008.6 15.3 16.9 0.0
13-08-2018 07:30 5 90 16.9 1005.7 0.0 0.0 NW 1008.6 15.3 16.9 0.0
13-08-2018 07:35 5 90 17.3 1005.8 0.0 0.0 NW 1008.7 15.7 17.3 0.0
13-08-2018 07:40 5 90 17.5 1005.8 0.0 0.0 S 1008.7 15.9 17.5 0.0
13-08-2018 07:45 5 90 17.6 1005.7 0.0 0.0 S 1008.6 16.0 17.6 0.0
13-08-2018 07:50 5 89 17.8 1005.6 0.0 0.0 N 1008.5 16.0 17.8 0.0
13-08-2018 07:55 5 88 18.0 1005.5 0.0 0.0 N 1008.4 16.0 18.0 0.0
13-08-2018 08:00 5 88 18.2 1005.8 0.0 2.5 NW 1008.7 16.2 18.2 0.0
13-08-2018 08:05 5 87 18.2 1005.7 1.1 2.5 NW 1008.6 16.0 18.2 0.0
13-08-2018 08:10 5 87 18.2 1005.7 1.1 2.5 NW 1008.6 16.0 18.2 0.0
13-08-2018 08:15 5 87 18.4 1005.6 0.0 0.0 NW 1008.5 16.2 18.4 0.0
13-08-2018 08:20 5 87 18.6 1005.7 0.0 0.0 NW 1008.6 16.4 18.6 0.0
13-08-2018 08:25 5 87 18.8 1005.6 0.0 0.0 S 1008.5 16.6 18.8 0.0
13-08-2018 08:30 5 85 19.0 1005.7 0.0 0.0 S 1008.6 16.4 19.0 0.0
13-08-2018 08:35 5 84 19.0 1005.7 2.5 3.6 SE 1008.6 16.3 19.0 0.0
13-08-2018 08:40 5 81 18.9 1005.8 1.1 3.6 SE 1008.7 15.6 18.9 0.0
13-08-2018 08:45 5 79 19.0 1005.9 5.0 7.2 E 1008.8 15.3 19.0 0.0
13-08-2018 08:50 5 77 19.0 1005.8 1.1 3.6 SE 1008.7 14.9 19.0 0.0
13-08-2018 08:55 5 77 19.2 1005.8 5.0 7.2 SE 1008.7 15.1 19.2 0.0
13-08-2018 09:00 5 76 19.3 1005.7 2.5 5.0 E 1008.6 15.0 19.3 0.0
13-08-2018 09:05 5 76 19.5 1005.8 2.5 5.0 SE 1008.7 15.2 19.5 0.0
13-08-2018 09:10 5 75 19.6 1005.7 2.5 3.6 E 1008.6 15.1 19.6 0.0
13-08-2018 09:15 5 75 19.8 1005.7 2.5 3.6 E 1008.6 15.3 19.8 0.0
13-08-2018 09:20 5 75 19.9 1005.6 2.5 5.0 E 1008.5 15.4 19.9 0.0
13-08-2018 09:25 5 74 20.0 1005.6 5.0 7.2 E 1008.5 15.2 20.0 0.0
13-08-2018 09:30 5 73 20.1 1005.6 9.7 12.2 E 1008.5 15.1 18.6 0.0
13-08-2018 09:35 5 71 20.1 1005.8 7.2 9.7 SE 1008.7 14.7 19.5 0.0
13-08-2018 09:40 5 72 20.1 1005.7 6.1 8.6 SE 1008.6 14.9 20.1 0.0
13-08-2018 09:45 5 71 20.2 1005.5 2.5 6.1 E 1008.4 14.8 20.2 0.0
13-08-2018 09:50 5 71 20.4 1005.5 3.6 6.1 E 1008.4 15.0 20.4 0.0
13-08-2018 09:55 5 70 20.6 1005.5 3.6 5.0 E 1008.4 15.0 20.6 0.0
13-08-2018 10:00 5 70 20.9 1005.6 7.2 9.7 NEE 1008.5 15.2 20.3 0.0
13-08-2018 10:05 5 67 21.0 1005.6 3.6 6.1 SEE 1008.5 14.7 21.0 0.0
13-08-2018 10:10 5 67 21.0 1005.5 3.6 6.1 SEE 1008.4 14.7 21.0 0.0
13-08-2018 10:15 5 66 21.4 1005.6 3.6 7.2 E 1008.5 14.8 21.4 0.0
13-08-2018 10:20 5 64 22.0 1005.5 6.1 7.2 E 1008.4 14.9 22.0 0.0
13-08-2018 10:25 5 62 22.2 1005.4 5.0 9.7 E 1008.3 14.6 22.2 0.0
13-08-2018 10:30 5 62 22.2 1005.5 6.1 8.6 SE 1008.4 14.6 22.2 0.0
13-08-2018 10:35 5 62 22.2 1005.5 6.1 9.7 NE 1008.4 14.6 22.2 0.0
13-08-2018 10:40 5 62 22.2 1005.4 3.6 6.1 SE 1008.3 14.6 22.2 0.0
13-08-2018 10:45 5 61 22.6 1005.3 7.2 8.6 E 1008.2 14.7 22.1 0.0
13-08-2018 10:50 5 59 23.0 1005.3 3.6 7.2 E 1008.2 14.6 23.0 0.0
13-08-2018 10:55 5 57 23.6 1005.4 2.5 6.1 SE 1008.3 14.6 23.6 0.0
13-08-2018 11:00 5 54 24.1 1005.3 7.2 12.2 SE 1008.2 14.2 23.7 0.0
13-08-2018 11:05 5 55 23.9 1005.4 2.5 6.1 E 1008.3 14.3 23.9 0.0
13-08-2018 11:10 5 54 23.6 1005.3 2.5 3.6 E 1008.2 13.8 23.6 0.0
13-08-2018 11:15 5 55 23.8 1005.4 8.6 11.2 E 1008.3 14.2 23.0 0.0
13-08-2018 11:20 5 53 23.7 1005.2 3.6 6.1 SE 1008.1 13.6 23.7 0.0
13-08-2018 11:25 5 54 23.8 1005.1 5.0 8.6 E 1008.0 14.0 23.8 0.0
13-08-2018 11:30 5 55 23.7 1005.2 3.6 5.0 SE 1008.1 14.2 23.7 0.0
13-08-2018 11:35 5 53 24.0 1005.1 6.1 8.6 NE 1008.0 13.9 24.0 0.0
13-08-2018 11:40 5 52 24.5 1004.9 5.0 7.2 E 1007.8 14.0 24.5 0.0
13-08-2018 11:45 5 48 25.3 1005.0 6.1 12.2 SEE 1007.9 13.5 25.3 0.0
13-08-2018 11:50 5 47 25.2 1005.1 3.6 6.1 SE 1008.0 13.1 25.2 0.0
13-08-2018 11:55 5 47 25.3 1005.1 5.0 7.2 SSE 1008.0 13.2 25.3 0.0
13-08-2018 12:00 5 48 25.5 1005.1 3.6 6.1 E 1008.0 13.7 25.5 0.0
13-08-2018 12:05 5 46 25.8 1005.0 2.5 6.1 SE 1007.9 13.3 25.8 0.0
13-08-2018 12:10 5 46 25.8 1004.9 2.5 6.1 SE 1007.8 13.3 25.8 0.0
13-08-2018 12:15 5 42 26.1 1004.8 12.2 15.8 SE 1007.7 12.2 25.0 0.0
13-08-2018 12:20 5 42 26.1 1005.0 6.1 11.2 SE 1007.9 12.2 26.1 0.0
13-08-2018 12:25 5 45 25.9 1004.8 7.2 9.7 E 1007.7 13.1 25.6 0.0
13-08-2018 12:30 5 43 26.4 1004.7 6.1 9.7 SE 1007.6 12.8 26.4 0.0
13-08-2018 12:35 5 44 26.1 1004.8 6.1 8.6 S 1007.7 12.9 26.1 0.0
13-08-2018 12:36 5 43 26.3 1004.7 9.7 11.2 E 1007.6 12.8 25.5 0.0
13-08-2018 12:43 5 43 26.3 1004.8 6.1 12.2 SE 1007.7 12.8 26.3 0.0
13-08-2018 12:48 5 43 26.7 1004.8 8.6 13.3 SE 1007.7 13.1 26.2 0.0
13-08-2018 12:53 5 42 27.4 1004.6 6.1 8.6 SE 1007.5 13.4 27.4 0.0
13-08-2018 12:58 5 42 26.8 1004.7 7.2 14.8 S 1007.6 12.8 26.5 0.0
13-08-2018 13:03 5 43 26.1 1004.6 8.6 12.2 SE 1007.5 12.6 25.5 0.0
13-08-2018 13:08 5 43 26.3 1004.7 5.0 8.6 SE 1007.6 12.8 26.3 0.0
13-08-2018 13:13 5 43 26.5 1004.7 7.2 12.2 SE 1007.6 12.9 26.2 0.0
13-08-2018 13:18 5 43 26.5 1004.6 7.2 9.7 SSE 1007.5 12.9 26.2 0.0
13-08-2018 13:23 5 43 26.5 1004.5 8.6 11.2 SE 1007.4 12.9 25.9 0.0
13-08-2018 13:28 5 42 27.1 1004.4 3.6 6.1 E 1007.3 13.1 27.1 0.0
13-08-2018 13:33 5 39 28.0 1004.3 5.0 9.7 E 1007.2 12.8 28.0 0.0
13-08-2018 13:38 5 41 28.6 1004.3 5.0 7.2 E 1007.2 14.1 28.6 0.0
13-08-2018 13:43 5 36 28.8 1004.2 6.1 13.3 SE 1007.1 12.3 28.8 0.0
13-08-2018 13:48 5 36 28.5 1004.1 11.2 13.3 E 1007.0 12.0 27.9 0.0
13-08-2018 13:53 5 34 28.6 1003.9 6.1 9.7 SE 1006.8 11.2 28.6 0.0
13-08-2018 13:58 5 35 28.5 1003.9 8.6 9.7 SE 1006.8 11.6 28.1 0.0
13-08-2018 14:03 5 35 28.7 1003.9 6.1 8.6 NEE 1006.8 11.8 28.7 0.0
13-08-2018 14:08 5 35 28.7 1003.8 6.1 8.6 NEE 1006.7 11.8 28.7 0.0
13-08-2018 14:13 5 28 29.0 1003.8 5.0 8.6 SW 1006.7 8.7 29.0 0.0
13-08-2018 14:18 5 30 29.3 1003.8 8.6 9.7 NE 1006.7 10.0 29.0 0.0
13-08-2018 14:23 5 27 29.2 1003.7 3.6 6.1 SE 1006.6 8.3 29.2 0.0
13-08-2018 14:28 5 29 29.2 1003.7 3.6 6.1 SE 1006.6 9.4 29.2 0.0
13-08-2018 14:33 5 26 29.6 1003.7 6.1 9.7 S 1006.6 8.1 29.6 0.0
13-08-2018 14:38 5 27 30.0 1003.6 5.0 11.2 E 1006.5 9.0 30.0 0.0
13-08-2018 14:43 5 26 29.8 1003.7 7.2 12.2 SE 1006.6 8.3 29.6 0.0
13-08-2018 14:48 5 27 28.8 1003.7 3.6 7.2 SE 1006.6 8.0 28.8 0.0
13-08-2018 14:53 5 28 29.3 1003.5 6.1 12.2 S 1006.4 8.9 29.3 0.0
13-08-2018 14:58 5 27 29.8 1003.4 13.3 18.4 SSE 1006.3 8.8 29.2 0.0
13-08-2018 15:03 5 27 30.2 1003.3 19.4 23.4 SSE 1006.2 9.2 29.4 0.0
13-08-2018 15:08 5 26 30.2 1003.3 13.3 23.4 SE 1006.2 8.6 29.7 0.0
13-08-2018 15:13 5 26 30.4 1003.3 11.2 18.4 SE 1006.2 8.8 30.0 0.0
13-08-2018 15:18 5 26 29.6 1003.2 8.6 14.8 SE 1006.1 8.1 29.3 0.0
13-08-2018 15:23 5 27 29.6 1003.2 11.2 14.8 E 1006.1 8.7 29.1 0.0
13-08-2018 15:28 5 26 29.9 1003.2 8.6 15.8 SEE 1006.1 8.4 29.6 0.0
13-08-2018 15:33 5 25 30.2 1003.2 3.6 9.7 SEE 1006.1 8.0 30.2 0.0
13-08-2018 15:38 5 26 29.8 1003.2 7.2 13.3 SW 1006.1 8.3 29.6 0.0
13-08-2018 15:43 5 24 30.1 1003.2 5.0 9.7 S 1006.1 7.4 30.1 0.0
13-08-2018 15:48 5 24 30.0 1003.1 6.1 12.2 S 1006.0 7.3 30.0 0.0
13-08-2018 15:53 5 25 29.8 1003.1 8.6 11.2 S 1006.0 7.7 29.5 0.0
13-08-2018 15:58 5 25 29.3 1003.2 7.2 11.2 SW 1006.1 7.3 29.1 0.0
13-08-2018 16:03 5 25 29.2 1003.1 8.6 12.2 S 1006.0 7.2 28.9 0.0
13-08-2018 16:08 5 25 29.2 1003.1 8.6 12.2 S 1006.0 7.2 28.9 0.0
13-08-2018 16:13 5 25 29.2 1003.1 6.1 9.7 SW 1006.0 7.2 29.2 0.0
13-08-2018 16:18 5 25 29.1 1003.1 3.6 9.7 SE 1006.0 7.1 29.1 0.0
13-08-2018 16:23 5 26 29.1 1003.0 3.6 6.1 SE 1005.9 7.7 29.1 0.0
13-08-2018 16:28 5 27 28.9 1003.2 7.2 11.2 SEE 1006.1 8.1 28.7 0.0
13-08-2018 16:33 5 28 28.9 1003.1 1.1 5.0 S 1006.0 8.6 28.9 0.0
13-08-2018 16:38 5 29 28.8 1003.0 2.5 3.6 S 1005.9 9.0 28.8 0.0
13-08-2018 16:43 5 29 28.5 1003.0 3.6 6.1 S 1005.9 8.8 28.5 0.0
13-08-2018 16:48 5 31 28.4 1003.1 2.5 7.2 S 1006.0 9.7 28.4 0.0
13-08-2018 16:53 5 30 28.0 1003.3 9.7 13.3 SSE 1006.2 8.8 27.4 0.0
13-08-2018 16:58 5 32 27.6 1003.4 34.2 51.5 SW 1006.3 9.5 25.4 0.0
13-08-2018 17:03 5 42 26.1 1003.6 27.0 36.7 SWW 1006.5 12.2 23.7 0.0
13-08-2018 17:08 5 45 25.7 1003.5 20.9 25.6 SW 1006.4 12.9 23.6 0.0
13-08-2018 17:13 5 46 25.3 1003.6 30.6 39.2 SW 1006.5 12.9 22.4 0.0
13-08-2018 17:18 5 47 25.1 1003.7 24.5 36.7 SW 1006.6 13.0 22.5 0.0
13-08-2018 17:23 5 49 24.8 1003.8 27.0 35.6 SW 1006.7 13.4 21.9 0.0
13-08-2018 17:28 5 50 24.5 1004.0 19.4 28.1 SW 1006.9 13.4 22.2 0.0
13-08-2018 17:33 5 52 24.2 1004.0 23.4 30.6 W 1006.9 13.8 21.4 0.0
13-08-2018 17:38 5 53 24.1 1004.1 20.9 24.5 SW 1007.0 14.0 21.5 0.0
13-08-2018 17:43 5 55 23.8 1003.9 28.1 30.6 SW 1006.8 14.2 20.5 0.0
13-08-2018 17:48 5 57 23.6 1004.0 14.8 19.4 SW 1006.9 14.6 21.6 0.0
13-08-2018 17:53 5 58 23.4 1004.0 11.2 13.3 SW 1006.9 14.7 22.0 0.0
13-08-2018 17:58 5 60 23.1 1004.0 18.4 22.0 SWW 1006.9 14.9 20.5 0.0
13-08-2018 18:03 5 62 22.8 1004.1 15.8 23.4 SW 1007.0 15.2 20.5 0.0
13-08-2018 18:08 5 62 22.8 1004.2 15.8 23.4 SW 1007.1 15.2 20.5 0.0
13-08-2018 18:13 5 64 22.5 1004.1 11.2 14.8 SW 1007.0 15.4 21.0 0.0
13-08-2018 18:18 5 65 22.3 1004.1 3.6 6.1 SW 1007.0 15.4 22.3 0.0
13-08-2018 18:23 5 65 22.3 1003.9 7.2 9.7 W 1006.8 15.4 21.8 0.0
13-08-2018 18:28 5 66 22.1 1003.9 5.0 7.2 SW 1006.8 15.5 22.1 0.0
13-08-2018 18:33 5 66 22.1 1003.9 3.6 5.0 SW 1006.8 15.5 22.1 0.0
13-08-2018 18:38 5 66 22.0 1003.9 6.1 7.2 SW 1006.8 15.4 22.0 0.0
13-08-2018 18:43 5 68 21.9 1003.8 2.5 3.6 SW 1006.7 15.8 21.9 0.0
13-08-2018 18:48 5 68 21.9 1003.8 2.5 5.0 SE 1006.7 15.8 21.9 0.0
13-08-2018 18:53 5 70 21.9 1003.9 6.1 7.2 E 1006.8 16.2 21.9 0.0
13-08-2018 18:58 5 71 21.8 1003.8 2.5 3.6 SEE 1006.7 16.3 21.8 0.0
13-08-2018 19:03 5 71 21.8 1003.9 3.6 5.0 SEE 1006.8 16.3 21.8 0.0
13-08-2018 19:08 5 71 21.7 1003.8 5.0 7.2 S 1006.7 16.2 21.7 0.0
13-08-2018 19:13 5 71 21.6 1003.9 7.2 9.7 SE 1006.8 16.1 21.0 0.0
13-08-2018 19:18 5 73 21.4 1004.0 7.2 13.3 E 1006.9 16.4 20.8 0.0
13-08-2018 19:23 5 76 20.8 1003.6 2.5 6.1 SSE 1006.5 16.4 20.8 0.0
13-08-2018 19:28 5 77 20.5 1003.5 1.1 3.6 S 1006.4 16.4 20.5 0.0
13-08-2018 19:33 5 77 20.4 1003.7 1.1 2.5 SE 1006.6 16.3 20.4 0.0
13-08-2018 19:38 5 77 20.4 1003.5 3.6 5.0 E 1006.4 16.3 20.4 0.0
13-08-2018 19:43 5 77 20.5 1003.1 5.0 7.2 NE 1006.0 16.4 20.5 0.0
13-08-2018 19:48 5 80 20.4 1003.1 3.6 6.1 NE 1006.0 16.9 20.4 0.0
13-08-2018 19:53 5 82 20.2 1003.1 5.0 7.2 E 1006.0 17.1 20.2 0.0
13-08-2018 19:58 5 83 20.1 1003.0 5.0 9.7 E 1005.9 17.1 20.1 0.0
13-08-2018 20:03 5 83 20.1 1003.0 6.1 12.2 E 1005.9 17.1 20.1 0.0
13-08-2018 20:08 5 83 20.1 1003.1 6.1 12.2 E 1006.0 17.1 20.1 0.0
13-08-2018 20:13 5 83 20.2 1003.1 0.0 0.0 E 1006.0 17.2 20.2 0.0
13-08-2018 20:18 5 83 20.2 1003.0 1.1 3.6 E 1005.9 17.2 20.2 0.0
13-08-2018 20:23 5 83 20.2 1003.2 2.5 5.0 S 1006.1 17.2 20.2 0.0
13-08-2018 20:28 5 84 20.1 1003.2 1.1 2.5 S 1006.1 17.3 20.1 0.0
13-08-2018 20:34 6 85 19.9 1003.3 1.1 2.5 SE 1006.2 17.3 19.9 0.0
13-08-2018 20:39 5 86 19.7 1003.2 2.5 3.6 SE 1006.1 17.3 19.7 0.0
13-08-2018 20:44 5 86 19.6 1003.3 0.0 1.1 SE 1006.2 17.2 19.6 0.0
13-08-2018 20:49 5 87 19.5 1003.3 0.0 0.0 SE 1006.2 17.3 19.5 0.0
13-08-2018 20:54 5 87 19.4 1003.3 0.0 0.0 SE 1006.2 17.2 19.4 0.0
13-08-2018 20:59 5 87 19.3 1003.5 1.1 2.5 SE 1006.4 17.1 19.3 0.0
13-08-2018 21:04 5 87 19.3 1003.6 3.6 5.0 SE 1006.5 17.1 19.3 0.0
13-08-2018 21:09 5 87 19.4 1003.5 3.6 5.0 SE 1006.4 17.2 19.4 0.0
13-08-2018 21:14 5 87 19.4 1003.6 3.6 5.0 SE 1006.5 17.2 19.4 0.0
13-08-2018 21:19 5 87 19.3 1003.6 3.6 5.0 SE 1006.5 17.1 19.3 0.0
13-08-2018 21:24 5 89 19.1 1003.6 1.1 2.5 SE 1006.5 17.3 19.1 0.0
13-08-2018 21:29 5 91 18.8 1003.7 1.1 2.5 SSE 1006.6 17.3 18.8 0.0
13-08-2018 21:34 5 92 18.7 1003.7 1.1 2.5 SE 1006.6 17.4 18.7 0.0
13-08-2018 21:39 5 93 18.6 1003.6 2.5 5.0 SE 1006.5 17.5 18.6 0.0
13-08-2018 21:44 5 93 18.4 1003.5 1.1 2.5 E 1006.4 17.3 18.4 0.0
13-08-2018 21:49 5 93 18.4 1003.7 1.1 2.5 E 1006.6 17.3 18.4 0.0
13-08-2018 21:54 5 93 18.3 1003.6 1.1 2.5 E 1006.5 17.2 18.3 0.0
13-08-2018 21:59 5 93 18.2 1003.7 1.1 3.6 E 1006.6 17.1 18.2 0.0
13-08-2018 22:04 5 94 18.3 1003.6 1.1 3.6 SE 1006.5 17.3 18.3 0.0
13-08-2018 22:09 5 93 18.4 1003.3 1.1 2.5 SE 1006.2 17.3 18.4 0.0
13-08-2018 22:14 5 93 18.5 1003.3 1.1 2.5 SE 1006.2 17.4 18.5 0.0
13-08-2018 22:19 5 92 18.6 1003.3 2.5 3.6 SE 1006.2 17.3 18.6 0.0
13-08-2018 22:24 5 92 18.7 1003.3 3.6 5.0 SE 1006.2 17.4 18.7 0.0
13-08-2018 22:29 5 92 18.7 1003.3 0.0 1.1 SE 1006.2 17.4 18.7 0.0
13-08-2018 22:34 5 91 18.7 1003.3 0.0 1.1 SE 1006.2 17.2 18.7 0.0
13-08-2018 22:39 5 91 18.7 1003.3 5.0 6.1 SE 1006.2 17.2 18.7 0.0
13-08-2018 22:44 5 90 18.7 1003.2 2.5 5.0 SE 1006.1 17.0 18.7 0.0
13-08-2018 22:49 5 90 18.8 1003.2 3.6 5.0 SE 1006.1 17.1 18.8 0.0
13-08-2018 22:54 5 90 18.7 1003.3 2.5 5.0 S 1006.2 17.0 18.7 0.0
13-08-2018 22:59 5 90 18.7 1003.3 1.1 2.5 SE 1006.2 17.0 18.7 0.0
13-08-2018 23:04 5 90 18.7 1003.1 1.1 2.5 SE 1006.0 17.0 18.7 0.0
13-08-2018 23:09 5 91 18.6 1003.3 3.6 5.0 S 1006.2 17.1 18.6 0.0
13-08-2018 23:14 5 91 18.5 1003.1 1.1 2.5 S 1006.0 17.0 18.5 0.0
13-08-2018 23:19 5 91 18.4 1003.2 0.0 0.0 S 1006.1 16.9 18.4 0.0
13-08-2018 23:24 5 91 18.4 1003.3 1.1 2.5 NW 1006.2 16.9 18.4 0.0
13-08-2018 23:29 5 92 18.3 1003.4 1.1 2.5 NW 1006.3 17.0 18.3 0.0
13-08-2018 23:34 5 92 18.1 1003.4 1.1 1.1 NW 1006.3 16.8 18.1 0.0
13-08-2018 23:39 5 92 18.1 1003.4 0.0 1.1 SW 1006.3 16.8 18.1 0.0
13-08-2018 23:44 5 93 18.2 1003.4 1.1 3.6 E 1006.3 17.1 18.2 0.0
13-08-2018 23:49 5 93 18.3 1003.3 2.5 5.0 SE 1006.2 17.2 18.3 0.0
13-08-2018 23:54 5 93 18.3 1003.4 3.6 7.2 SSE 1006.3 17.2 18.3 0.0
13-08-2018 23:59 5 93 18.4 1003.4 5.0 9.7 S 1006.3 17.3 18.4 0.0

                                                                                            Tabelle: 08 : 00 UHR

STATIONHÖHELUFTD.TEMP.T-MinT-MaxU%RR1RR12SSSDDFFFXWetter+WolkenBöen
UFS TW Ems 0 1005.5 19.2 18.7 20.4 88 ---- --- --- O 14 --- --- ---
UFS Deutsche Bucht 0 1006.2 19.0 18.8 20.5 86 ---- --- --- O 14 --- --- ---
Helgoland 4 1006.1 19.3 18.9 20.1 83 0.0 0 --- SO 25 28 --- ---
List/Sylt 26 1006.5 18.3 17.0 18.9 86 0.0 2 0 S 20 27 leichter Regen ---
Schleswig 43 1007.5 16.2 15.7 17.9 90 0.1 0 0 O 4 6 leichter Regen ---
Leuchtturm Kiel 5 1008.1 18.6 18.5 19.5 69 ---- --- --- S 11 27 --- ---
Kiel 27 1007.6 17.4 15.9 19.7 76 0.0 1 --- S 4 11 leichter Regen ---
Fehmarn 3 1008.0 17.8 16.0 18.7 85 0.0 2 --- SO 12 18 Regen ---
Arkona 42 1009.8 18.4 14.5 18.6 84 0.2 5 --- SO 18 31 leichter Regen ---
Norderney 11 1005.8 18.3 18.2 21.4 80 0.0 0 --- SO 9 20 Regen ---
Leuchtt. Alte Weser 32 1005.8 19.9 19.3 22.4 73 ---- --- --- SO 14 --- --- ---
Cuxhaven 5 1006.6 19.2 19.2 22.2 73 0.0 0 --- SO 11 26 --- ---
Hamburg-Flh. 11 1007.2 18.2 16.8 21.8 65 0.0 0 0 O 8 11 stark bewölkt ---
Schwerin 59 1008.2 18.3 16.6 21.1 67 0.0 0 --- O 4 8 --- ---
Rostock 4 1008.4 18.7 17.4 20.3 73 0.0 0 --- SO 16 25 Regen ---
Greifswald 2 1009.5 18.8 17.6 19.0 80 0.0 0 0 O 7 --- bewölkt ---
Emden 0 1005.5 17.5 16.4 22.9 86 0.0 0 --- NO 4 6 Regen ---
Bremen-Flh. 5 1006.3 17.8 16.4 23.1 61 0.0 0 0 SO 10 13 stark bewölkt ---
Lüchow 17 1008.1 16.3 9.8 22.8 70 0.0 0 --- SO 2 6 --- ---
Marnitz 81 1008.3 17.5 12.0 22.8 62 0.0 0 --- SO 4 8 --- ---
Waren 70 1008.9 17.9 15.1 22.9 59 0.0 0 --- SO 6 10 --- ---
Neuruppin 38 1008.9 16.1 12.8 21.7 70 0.0 0 --- O 6 9 wolkenlos ---
Angermünde 56 1009.8 17.1 11.7 22.2 63 0.0 0 0 N 2 5 heiter ---
Münster/Osnabr.-Flh. 48 1006.7 17.6 15.9 26.4 56 0.0 0 0 S 8 15 stark bewölkt ---
Hannover-Flh. 59 1007.2 18.0 13.5 24.7 51 0.0 0 0 SO 9 13 heiter ---
Magdeburg 76 1008.5 17.0 12.3 25.0 59 0.0 0 --- SO 3 6 --- ---
Potsdam 81 1008.9 17.3 14.4 23.5 61 0.0 0 0 S 8 18 heiter ---
Berlin-Tegel 37 1008.9 19.9 14.1 25.3 46 0.0 0 0 SO 6 11 heiter ---
Berlin-Tempelhof 48 1009.0 18.6 14.0 25.7 52 0.0 0 --- SO 7 13 --- ---
Berlin-Dahlem 51 1009.0 16.2 11.8 23.4 --- ---- 0 0 S 7 --- heiter ---
Lindenberg 91 1009.4 17.3 15.7 23.0 54 0.0 0 0 SO 9 14 heiter ---
Düsseldorf-Flh. 45 1007.6 17.4 16.5 26.7 79 0.4 1 0 S 12 18 Regenschauer ---
Essen 150 1007.3 16.4 16.3 24.8 79 0.2 0 --- S 7 25 Regen ---
Kahler Asten 839 ------ 18.0 16.5 19.3 48 0.0 0 --- S 20 31 --- ---
Bad Lippspringe 157 1006.5 22.9 12.6 26.0 37 0.0 0 --- SW 4 15 --- ---
Fritzlar 174 1008.5 13.5 8.8 25.0 75 ---- 0 0 SO 4 --- heiter ---
Brocken 1142 ------ 15.4 15.0 16.4 48 ---- 0 0 SW 28 34 heiter ---
Leipzig-Flh. 142 1008.9 18.1 14.0 25.7 50 0.0 0 0 S 9 17 heiter ---
Dresden-Flh. 227 1009.6 19.2 15.0 25.1 47 0.0 0 0 S 9 18 heiter ---
Cottbus 69 1009.1 19.2 11.1 23.5 49 0.0 0 --- O 3 6 --- ---
Görlitz 238 1009.8 21.9 14.2 23.9 46 0.0 0 0 S 9 16 heiter ---
Aachen 231 1006.1 16.5 15.7 24.2 89 1.6 3 --- SO 16 27 Regen ---
Nürburg 485 1008.2 14.4 12.9 24.1 89 1.1 1 --- O 5 26 Regen ---
Köln/Bonn-Flh. 92 1009.4 14.8 14.5 25.5 91 0.1 1 0 S 9 18 leichter Regen ---
Gießen/Wettenberg 203 ------ --- --- --- --- ---- --- --- -- --- --- --- ---
Wasserkuppe 921 ------ 18.2 14.0 18.8 44 0.0 0 0 S 21 26 heiter ---
Meiningen 450 1009.6 15.8 12.2 24.2 55 0.0 0 --- S 5 9 --- ---
Erfurt 316 1008.8 18.1 11.7 24.0 51 0.0 0 0 S 9 17 heiter ---
Gera 311 1009.6 18.6 13.6 25.5 50 0.0 0 --- S 13 18 --- ---
Fichtelberg 1213 ------ 16.0 15.3 17.4 64 ---- 0 0 SW 25 36 heiter ---
Trier 265 1011.1 14.7 13.7 26.7 92 0.0 1 --- W 9 19 Regen ---
Hahn-Flh. 497 1009.5 13.5 13.3 22.7 95 7.0 8 --- NW 3 53 --- Windböen
Frankfurt/M-Flh. 112 1008.4 18.9 13.0 26.0 51 0.0 0 0 NO 5 11 stark bewölkt ---
OF-Wetterpark 119 1008.3 17.5 12.4 25.6 61 0.0 0 --- - 0 5 --- ---
Würzburg 268 1009.6 14.9 12.4 27.0 64 0.0 0 --- S 5 7 --- ---
Bamberg 239 1010.1 14.8 8.5 26.8 62 0.0 0 --- W 2 4 wolkenlos ---
Hof 567 1010.0 17.1 12.6 24.0 56 0.0 0 --- SO 5 12 --- ---
Weiden 438 1010.9 16.6 12.0 25.4 52 0.0 0 --- - 0 5 --- ---
Saarbrücken-Flh. 320 1010.0 17.1 15.5 26.6 93 2.7 4 0 W 16 49 Regenschauer ---
Karlsruhe-Rheinst. 116 1009.9 17.6 13.4 29.2 72 0.0 0 --- W 4 10 --- ---
Mannheim 96 1008.9 19.8 13.9 28.3 53 0.0 0 --- SW 10 17 --- ---
Stuttgart-Flh. 371 1009.7 17.5 13.5 28.6 69 0.0 0 --- O 4 5 heiter ---
Öhringen 276 1009.1 18.4 14.2 28.3 56 0.0 0 --- N 3 9 wolkenlos ---
Nürnberg-Flh. 314 1009.7 18.4 12.5 27.1 62 0.0 0 0 SO 11 15 heiter ---
Regensburg 366 1011.0 17.2 14.6 25.6 76 0.0 0 --- SO 8 18 wolkenlos ---
Straubing 351 1011.3 17.8 13.3 25.0 79 0.0 0 --- SO 5 8 wolkenlos ---
Großer Arber 1436 ------ 15.8 15.0 16.6 69 0.0 0 --- SW 22 28 wolkenlos ---
Lahr 155 1010.5 21.2 15.0 29.9 59 0.0 0 --- W 20 33 --- ---
Freudenstadt 797 ------ 19.6 16.7 23.5 58 0.0 0 --- W 27 53 --- Windböen
Stötten 734 1009.1 20.6 19.1 25.0 51 0.0 0 --- S 9 21 --- ---
Augsburg 462 1010.6 17.9 13.5 27.2 76 0.0 0 --- S 8 10 --- ---
München-Flh. 444 1010.6 19.2 12.2 25.7 76 0.0 0 0 S 4 13 heiter ---
Fürstenzell 476 1011.5 18.2 14.4 24.7 74 0.0 0 --- NO 9 11 wolkenlos ---
Feldberg/Schw. 1486 ------ 12.9 12.9 18.0 89 0.0 0 --- SW 51 70 Niederschlag Sturmböen
Konstanz 443 1010.9 19.1 16.9 27.2 74 0.0 0 --- NO 4 13 --- ---
Kempten 705 1010.7 18.0 14.2 25.4 68 0.0 0 --- SO 7 13 --- ---
Oberstdorf 806 ------ 12.1 9.9 20.9 92 0.0 0 --- SO 5 7 wolkenlos ---
Zugspitze 2960 ------ 6.7 4.3 7.9 62 ---- --- 0 SW 21 35   ---
Hohenpeißenberg 977 ------ 22.2 17.8 22.7 46 0.0 0 0 SO 9 12 heiter ---

                                                                                        Tabelle: 20 : 00 UHR

STATIONHÖHELUFTD.TEMP.T-MinT-MaxU%RR1RR12SSSDDFFFXWetter+WolkenBöen
UFS TW Ems 0 1004.1 18.3 18.3 19.9 88 ---- --- --- SO 11 --- --- ---
UFS Deutsche Bucht 26 1004.3 17.4 17.2 20.0 86 ---- --- --- O 14 --- --- ---
Helgoland 4 1004.1 17.7 16.1 21.3 85 0.2 11 --- O 19 24 Regen ---
List/Sylt 26 1004.3 19.2 17.7 20.2 79 0.0 1 0 O 17 26 --- ---
Schleswig 43 1004.3 19.6 16.2 21.2 80 0.0 0 0 O 8 14 stark bewölkt ---
Leuchtturm Kiel 5 1005.0 21.2 18.5 21.2 76 ---- --- --- O 27 42 --- ---
Kiel 27 1004.4 20.8 17.3 23.3 68 0.0 0 --- SO 4 11   ---
Fehmarn 3 1005.2 19.6 17.8 22.3 78 0.1 0 --- O 6 17 Regen ---
Arkona 42 1006.6 19.7 18.3 21.9 86 0.0 0 --- O 19 45 leichter Regen ---
Norderney 11 1004.0 18.8 18.3 24.6 90 0.0 4 --- SW 10 19 Regen ---
Leuchtt. Alte Weser 32 1003.6 18.0 17.8 21.8 92 ---- --- --- SO 7 --- --- ---
Cuxhaven 5 1004.3 17.4 16.7 23.5 97 5.6 6 --- SW 9 52 leichter Regen Windböen
Hamburg-Flh 11 1004.7 20.6 18.3 28.1 74 0.4 1 0 S 15 26 Regenschauer ---
Schwerin 59 1005.3 21.1 18.3 29.8 68 0.0 0 --- SO 7 17 leichter Regen ---
Rostock 4 1006.5 20.9 18.7 29.8 69 0.0 0 --- S 9 20 Regen ---
Greifswald 2 1006.3 22.2 18.8 27.8 64 0.0 0 0 SO 3 15 bedeckt ---
Emden 0 1004.1 19.4 17.4 25.4 86 0.0 14 --- W 9 16 --- ---
Bremen-Flh. 5 1005.1 17.1 17.1 25.3 94 0.1 5 0 S 8 22 starkes Gewitter ---
Lüchow 17 1005.4 23.0 16.5 30.8 59 0.0 0 --- S 7 25 --- ---
Marnitz 81 1005.7 21.3 17.3 30.0 63 0.0 0 --- S 8 17 --- ---
Waren 70 1006.0 22.4 17.9 29.7 59 0.0 0 --- SW 6 10 --- ---
Neuruppin 38 1006.4 23.0 16.1 29.9 58 0.0 0 --- SW 4 12 --- ---
Angermünde 56 1006.5 24.7 16.8 30.6 43 0.0 0 0 W 17 27 Regen ---
Münster/Osnabr.-Flh. 48 1006.1 18.1 16.5 25.3 88 0.0 6 0 SW 15 29 Regenschauer ---
Hannover-Flh. 59 1005.3 21.9 18.0 25.5 67 0.0 0 0 W 17 28 Regenschauer ---
Magdeburg 76 1006.4 23.4 17.2 30.6 56 0.0 0 --- SW 17 28 --- ---
Potsdam 81 1006.9 22.7 17.3 33.0 59 0.0 0 0 SW 11 22 bewölkt ---
Berlin-Tegel 37 1006.4 23.5 20.0 32.5 52 0.0 0 0 SO 8 18 Regen ---
Berlin-Tempelhof 48 1006.7 23.3 18.6 32.0 54 0.0 0 --- O 7 18 --- ---
Berlin-Dahlem 51 1006.7 22.5 16.2 31.4 --- ---- 0 0 S 7 --- leichter Regen ---
Lindenberg 91 1006.7 24.7 17.5 32.6 44 0.0 0 0 W 10 31 Regenschauer ---
Düsseldorf-Flh. 45 1007.3 19.3 16.8 23.0 76 0.0 10 0 SW 18 30 Regenschauer ---
Essen 150 1007.2 18.2 15.5 23.1 82 0.0 5 --- SW 11 22 --- ---
Kahler Asten 839 ------ 14.0 12.0 17.9 95 0.0 11 --- W 18 42 --- ---
Bad Lippspringe 157 1006.8 19.0 17.6 23.4 72 0.0 2 --- SW 14 33 Regen ---
Fritzlar 174 ------ --- --- --- --- ---- --- --- -- --- --- --- ---
Brocken 1142 ------ 12.9 12.2 18.0 95 ---- 1 0 SW 40 56 stark bewölkt Windböen
Leipzig-Flh. 142 1007.4 22.7 18.2 31.3 58 0.0 0 0 SW 19 29 stark bewölkt ---
Dresden-Flh. 227 1007.5 22.9 19.3 33.2 57 0.0 0 0 NW 9 18 Regenschauer ---
Cottbus 69 1007.3 25.2 19.3 33.6 44 0.0 0 --- W 8 29 leichter Regen ---
Görlitz 238 1007.1 23.9 22.1 32.9 46 0.0 0 0 NW 13 37 Regenschauer ---
Aachen 231 1008.0 18.5 16.3 22.0 81 0.0 8 --- W 17 25 Regen ---
Nürburg 485 1008.5 16.3 14.0 20.7 90 1.0 8 --- SW 13 25 Regen ---
Köln/Bonn-Flh. 92 1007.7 20.3 14.7 23.1 70 0.0 6 0 W 11 30 bewölkt ---
Gießen/Wettenberg 203 ------ --- --- --- --- ---- --- --- -- --- --- --- ---
Wasserkuppe 921 ------ 15.2 13.7 21.1 90 0.0 2 0 S 27 41 heiter ---
Meiningen 450 1008.3 20.1 15.9 22.7 70 0.0 1 --- S 17 31 --- ---
Erfurt 316 1007.1 21.6 18.1 27.1 60 0.0 0 0 SW 29 43 heiter ---
Gera 311 1008.0 22.3 18.6 30.1 53 0.0 0 --- SW 21 33 --- ---
Fichtelberg 1213 ------ 16.5 16.0 24.8 65 ---- --- 0 W 29 37 Regenschauer ---
Trier 265 1009.2 18.3 14.4 24.6 83 0.0 7 --- S 11 25 Regen ---
Hahn-Flh. 497 1009.2 15.6 13.5 21.8 91 1.2 14 --- SW 12 28 --- ---
Frankfurt/M-Flh. 112 1008.0 21.8 15.4 23.9 71 0.0 6 0 S 15 41 heiter ---
OF-Wetterpark 119 1007.9 22.0 15.9 24.1 68 0.0 4 --- S 11 25 wolkenlos ---
Würzburg 268 1010.1 17.9 14.5 23.9 83 0.2 2 --- W 26 38 Regen ---
Bamberg 239 1008.7 22.8 14.9 27.5 63 0.0 0 --- - 0 10 --- ---
Hof 567 1008.8 19.7 17.1 28.1 68 0.1 --- --- -- --- ---   ---
Weiden 438 1009.7 18.6 16.5 30.8 82 0.2 0 --- S 5 16 leichter Regen ---
Saarbrücken-Flh. 320 1009.1 20.1 16.7 22.6 64 0.0 18 0 W 18 33 bewölkt ---
Karlsruhe-Rheinst. 116 1009.1 23.8 17.6 25.5 65 0.0 1 --- SW 18 30 --- ---
Mannheim 96 1008.8 21.3 18.0 24.3 83 0.0 7 --- S 9 16 wolkenlos ---
Stuttgart-Flh. 371 1009.4 19.9 17.5 24.3 77 0.0 0 --- S 9 21 starkes Gewitter ---
Öhringen 276 1009.2 22.7 18.5 24.1 60 0.0 1 --- W 18 34 leichter Regen ---
Nürnberg-Flh. 314 1008.9 22.8 18.5 29.0 57 0.0 0 0 S 9 16 bewölkt ---
Regensburg 366 1010.5 17.9 17.3 33.6 96 2.7 4 --- NW 5 19 leichter Regen ---
Straubing 351 1011.1 18.3 17.9 32.2 90 2.3 2 --- W 12 46 Regen ---
Großer Arber 1436 ------ 14.7 14.7 22.8 70 0.0 0 --- W 35 50 --- ---
Lahr 155 1009.8 22.6 19.2 23.8 69 0.0 4 --- S 11 18 --- ---
Freudenstadt 797 ------ 15.9 15.2 20.5 93 0.0 7 --- SW 13 22 --- ---
Stötten 734 1010.8 15.3 14.8 25.1 100 7.9 10 --- W 9 41 Regen ---
Augsburg 462 1010.0 19.7 18.0 28.7 76 0.0 2 --- SW 7 15 --- ---
München-Flh. 444 1011.0 17.8 17.5 29.6 90 1.7 9 0 W 2 12 Regenschauer ---
Fürstenzell 476 1008.6 20.1 18.3 30.8 72 0.0 0 --- W 43 71 leichter Regen Sturmböen
Feldberg/Schw. 1486 ------ 11.4 10.5 12.8 97 0.0 13 --- SW 38 52 --- Windböen
Konstanz 443 1010.0 21.6 19.0 26.2 72 0.0 2 --- SW 5 15 --- ---
Kempten 705 1010.0 19.4 17.8 26.5 75 0.0 --- --- S 7 17 --- ---
Oberstdorf 806 ------ 17.0 12.1 25.9 92 0.0 7 --- S 9 11 --- ---
Zugspitze 2960 ------ 4.3 3.0 8.8 100 ---- --- --- NW 18 48 Niederschlag ---
Hohenpeißenberg 977 ------ 14.8 14.5 25.7 93 0.1 16 0 SO 15 20 Regenschauer ---

 

  • Temperatur
  • Wetterzustand
  • Windrichtung und -geschwindigkeit
  • Luftdruck
  • relative Luftfeuchtigkeit
  • Sichtweite
  • Gesamtbedeckungsgrad
  • Niederschlag
  • Sonnenscheindauer

 Höhe:     m über NN
Luftd.:   auf Meereshöhe reduzierter Luftdruck in hPa
TEMP.:   Lufttemperatur in Grad Celsius
T-MIN:   Minimumtemperatur der Luft in 2m Höhe in Grad Celsius, von 18 UTC Vortag bis 06 UTC heute
T-MAX:  Maximumtemperatur der Luft in 2m Höhe in Grad Celsius, von 18 UTC Vortag bis 06 UTC heute
RR1:     Niederschlagsmenge, einstündig, mm ist gleich Liter pro
RR12:   Niederschlagsmenge, 12 stündig, 18 UTC Vortag bis 06 UTC heute in mm ist gleich Liter pro
SSS:     Gesamtschneehöhe
DD:      Windrichtung
FF:       Windgeschwindigkeit letztes 10-Minutenmittel in km/h
FX:       höchste Windspitze während der letzten Stunde in km/h
---:      Wert nicht vorhanden

 

2009-2018

Unwetterwarnungen

 

Radarbild          
aktueller Radarfilm Deutschland

Europa-Meteoalarm